sensor_id;sensor_type;location;lat;lon;timestamp;pressure;altitude;pressure_sealevel;temperature;humidity
75699;BME280;64313;51.018;13.742;2023-04-03T00:00:41;100767.78;;;4.09;61.53
75699;BME280;64313;51.018;13.742;2023-04-03T00:03:06;100775.38;;;4.02;60.43
75699;BME280;64313;51.018;13.742;2023-04-03T00:05:33;100775.38;;;4.02;61.75
75699;BME280;64313;51.018;13.742;2023-04-03T00:07:58;100775.53;;;4.01;61.96
75699;BME280;64313;51.018;13.742;2023-04-03T00:10:23;100773.00;;;3.99;62.06
75699;BME280;64313;51.018;13.742;2023-04-03T00:12:49;100775.66;;;3.99;61.44
75699;BME280;64313;51.018;13.742;2023-04-03T00:15:14;100778.34;;;3.88;61.74
75699;BME280;64313;51.018;13.742;2023-04-03T00:17:40;100773.22;;;3.86;62.17
75699;BME280;64313;51.018;13.742;2023-04-03T00:20:05;100780.31;;;3.86;61.53
75699;BME280;64313;51.018;13.742;2023-04-03T00:22:31;100775.19;;;3.94;62.02
75699;BME280;64313;51.018;13.742;2023-04-03T00:24:56;100787.38;;;4.06;60.13
75699;BME280;64313;51.018;13.742;2023-04-03T00:27:22;100790.34;;;3.92;60.44
75699;BME280;64313;51.018;13.742;2023-04-03T00:29:47;100790.63;;;3.89;61.14
75699;BME280;64313;51.018;13.742;2023-04-03T00:32:13;100798.56;;;3.89;61.47
75699;BME280;64313;51.018;13.742;2023-04-03T00:34:39;100796.19;;;3.86;61.76
75699;BME280;64313;51.018;13.742;2023-04-03T00:37:04;100796.63;;;3.91;61.60
75699;BME280;64313;51.018;13.742;2023-04-03T00:39:30;100793.66;;;3.84;61.83
75699;BME280;64313;51.018;13.742;2023-04-03T00:41:55;100796.94;;;3.77;61.10
75699;BME280;64313;51.018;13.742;2023-04-03T00:46:58;100796.81;;;3.78;62.23
75699;BME280;64313;51.018;13.742;2023-04-03T00:49:24;100796.22;;;3.75;60.59
75699;BME280;64313;51.018;13.742;2023-04-03T00:51:49;100793.97;;;3.70;61.30
75699;BME280;64313;51.018;13.742;2023-04-03T00:54:17;100798.41;;;3.69;61.50
75699;BME280;64313;51.018;13.742;2023-04-03T00:56:42;100795.19;;;3.66;60.69
75699;BME280;64313;51.018;13.742;2023-04-03T00:59:10;100790.19;;;3.63;61.74
75699;BME280;64313;51.018;13.742;2023-04-03T01:01:37;100800.88;;;3.61;61.51
75699;BME280;64313;51.018;13.742;2023-04-03T01:04:04;100791.97;;;3.62;61.91
75699;BME280;64313;51.018;13.742;2023-04-03T01:06:34;100800.88;;;3.61;61.83
75699;BME280;64313;51.018;13.742;2023-04-03T01:09:06;100800.16;;;3.59;61.00
75699;BME280;64313;51.018;13.742;2023-04-03T01:11:31;100803.88;;;3.57;61.20
75699;BME280;64313;51.018;13.742;2023-04-03T01:13:59;100809.78;;;3.60;61.73
75699;BME280;64313;51.018;13.742;2023-04-03T01:16:26;100807.38;;;3.57;61.56
75699;BME280;64313;51.018;13.742;2023-04-03T01:18:52;100806.78;;;3.54;61.51
75699;BME280;64313;51.018;13.742;2023-04-03T01:24:38;100811.63;;;3.49;61.51
75699;BME280;64313;51.018;13.742;2023-04-03T01:27:08;100814.63;;;3.44;60.27
75699;BME280;64313;51.018;13.742;2023-04-03T01:29:36;100814.16;;;3.39;60.63
75699;BME280;64313;51.018;13.742;2023-04-03T01:32:03;100813.66;;;3.45;61.20
75699;BME280;64313;51.018;13.742;2023-04-03T01:34:30;100818.00;;;3.46;61.62
75699;BME280;64313;51.018;13.742;2023-04-03T01:36:56;100824.47;;;3.42;61.39
75699;BME280;64313;51.018;13.742;2023-04-03T01:39:21;100824.28;;;3.34;61.36
75699;BME280;64313;51.018;13.742;2023-04-03T01:41:47;100825.84;;;3.36;61.53
75699;BME280;64313;51.018;13.742;2023-04-03T01:44:20;100822.75;;;3.20;60.37
75699;BME280;64313;51.018;13.742;2023-04-03T01:46:46;100829.84;;;3.19;60.55
75699;BME280;64313;51.018;13.742;2023-04-03T01:49:13;100833.56;;;3.17;60.98
75699;BME280;64313;51.018;13.742;2023-04-03T01:51:38;100836.69;;;3.22;61.51
75699;BME280;64313;51.018;13.742;2023-04-03T01:54:04;100842.09;;;3.20;61.19
75699;BME280;64313;51.018;13.742;2023-04-03T01:56:29;100836.94;;;3.19;61.86
75699;BME280;64313;51.018;13.742;2023-04-03T01:58:56;100848.22;;;3.21;61.63
75699;BME280;64313;51.018;13.742;2023-04-03T02:01:21;100846.31;;;3.23;60.04
75699;BME280;64313;51.018;13.742;2023-04-03T02:03:47;100847.97;;;3.24;61.28
75699;BME280;64313;51.018;13.742;2023-04-03T02:06:13;100847.38;;;3.20;60.98
75699;BME280;64313;51.018;13.742;2023-04-03T02:08:38;100850.66;;;3.13;61.60
75699;BME280;64313;51.018;13.742;2023-04-03T02:11:06;100851.72;;;3.10;61.39
75699;BME280;64313;51.018;13.742;2023-04-03T02:13:32;100851.00;;;3.08;61.02
75699;BME280;64313;51.018;13.742;2023-04-03T02:15:58;100856.91;;;3.00;60.27
75699;BME280;64313;51.018;13.742;2023-04-03T02:18:24;100862.28;;;2.99;61.02
75699;BME280;64313;51.018;13.742;2023-04-03T02:20:49;100855.59;;;2.95;61.46
75699;BME280;64313;51.018;13.742;2023-04-03T02:23:14;100858.94;;;2.97;61.10
75699;BME280;64313;51.018;13.742;2023-04-03T02:25:40;100853.44;;;3.00;61.18
75699;BME280;64313;51.018;13.742;2023-04-03T02:28:05;100864.97;;;2.88;59.44
75699;BME280;64313;51.018;13.742;2023-04-03T02:30:31;100862.94;;;2.80;60.82
75699;BME280;64313;51.018;13.742;2023-04-03T02:32:56;100877.31;;;2.76;60.24
75699;BME280;64313;51.018;13.742;2023-04-03T02:35:23;100872.38;;;2.71;60.90
75699;BME280;64313;51.018;13.742;2023-04-03T02:37:48;100876.84;;;2.71;60.99
75699;BME280;64313;51.018;13.742;2023-04-03T02:40:13;100880.31;;;2.71;60.80
75699;BME280;64313;51.018;13.742;2023-04-03T02:42:39;100877.69;;;2.60;61.06
75699;BME280;64313;51.018;13.742;2023-04-03T02:45:06;100875.63;;;2.64;61.30
75699;BME280;64313;51.018;13.742;2023-04-03T02:47:31;100872.75;;;2.67;60.96
75699;BME280;64313;51.018;13.742;2023-04-03T02:49:57;100881.88;;;2.63;61.56
75699;BME280;64313;51.018;13.742;2023-04-03T02:52:22;100885.47;;;2.62;61.19
75699;BME280;64313;51.018;13.742;2023-04-03T02:54:49;100877.88;;;2.57;60.99
75699;BME280;64313;51.018;13.742;2023-04-03T02:57:14;100886.53;;;2.59;61.28
75699;BME280;64313;51.018;13.742;2023-04-03T02:59:40;100889.06;;;2.60;61.32
75699;BME280;64313;51.018;13.742;2023-04-03T03:02:06;100886.53;;;2.59;61.31
75699;BME280;64313;51.018;13.742;2023-04-03T03:04:32;100889.53;;;2.54;61.31
75699;BME280;64313;51.018;13.742;2023-04-03T03:06:58;100896.13;;;2.49;61.27
75699;BME280;64313;51.018;13.742;2023-04-03T03:09:23;100894.22;;;2.51;60.91
75699;BME280;64313;51.018;13.742;2023-04-03T03:11:48;100899.34;;;2.41;61.74
75699;BME280;64313;51.018;13.742;2023-04-03T03:14:14;100899.84;;;2.35;61.81
75699;BME280;64313;51.018;13.742;2023-04-03T03:16:39;100908.00;;;2.32;60.98
75699;BME280;64313;51.018;13.742;2023-04-03T03:19:04;100903.06;;;2.27;61.88
75699;BME280;64313;51.018;13.742;2023-04-03T03:21:31;100906.03;;;2.23;61.78
75699;BME280;64313;51.018;13.742;2023-04-03T03:23:57;100911.75;;;2.16;62.45
75699;BME280;64313;51.018;13.742;2023-04-03T03:26:22;100902.91;;;2.17;61.96
75699;BME280;64313;51.018;13.742;2023-04-03T03:28:48;100909.00;;;2.18;62.03
75699;BME280;64313;51.018;13.742;2023-04-03T03:31:13;100909.13;;;2.16;61.89
75699;BME280;64313;51.018;13.742;2023-04-03T03:33:39;100905.78;;;2.14;61.76
75699;BME280;64313;51.018;13.742;2023-04-03T03:36:05;100903.81;;;2.05;62.08
75699;BME280;64313;51.018;13.742;2023-04-03T03:38:30;100908.94;;;1.95;62.89
75699;BME280;64313;51.018;13.742;2023-04-03T03:40:57;100906.94;;;1.99;62.95
75699;BME280;64313;51.018;13.742;2023-04-03T03:43:23;100909.03;;;1.94;63.02
75699;BME280;64313;51.018;13.742;2023-04-03T03:45:51;100910.84;;;1.93;63.07
75699;BME280;64313;51.018;13.742;2023-04-03T03:48:17;100905.81;;;1.90;62.94
75699;BME280;64313;51.018;13.742;2023-04-03T03:50:43;100908.53;;;1.89;62.82
75699;BME280;64313;51.018;13.742;2023-04-03T03:53:08;100917.41;;;1.88;62.92
75699;BME280;64313;51.018;13.742;2023-04-03T03:55:34;100925.66;;;1.83;63.41
75699;BME280;64313;51.018;13.742;2023-04-03T03:57:59;100915.94;;;1.84;62.46
75699;BME280;64313;51.018;13.742;2023-04-03T04:00:27;100921.59;;;1.79;63.31
75699;BME280;64313;51.018;13.742;2023-04-03T04:02:54;100919.88;;;1.78;63.20
75699;BME280;64313;51.018;13.742;2023-04-03T04:05:22;100913.88;;;1.76;63.43
75699;BME280;64313;51.018;13.742;2023-04-03T04:07:48;100912.94;;;1.77;63.65
75699;BME280;64313;51.018;13.742;2023-04-03T04:10:13;100909.25;;;1.80;63.44
75699;BME280;64313;51.018;13.742;2023-04-03T04:12:39;100921.50;;;1.68;63.46
75699;BME280;64313;51.018;13.742;2023-04-03T04:15:05;100921.97;;;1.62;63.94
75699;BME280;64313;51.018;13.742;2023-04-03T04:17:31;100923.25;;;1.56;63.93
75699;BME280;64313;51.018;13.742;2023-04-03T04:19:57;100928.63;;;1.55;64.19
75699;BME280;64313;51.018;13.742;2023-04-03T04:22:23;100933.16;;;1.52;64.12
75699;BME280;64313;51.018;13.742;2023-04-03T04:24:48;100937.38;;;1.55;63.92
75699;BME280;64313;51.018;13.742;2023-04-03T04:27:13;100936.53;;;1.55;63.91
75699;BME280;64313;51.018;13.742;2023-04-03T04:29:40;100937.31;;;1.44;63.82
75699;BME280;64313;51.018;13.742;2023-04-03T04:32:07;100937.22;;;1.33;64.34
75699;BME280;64313;51.018;13.742;2023-04-03T04:34:34;100939.63;;;1.36;64.62
75699;BME280;64313;51.018;13.742;2023-04-03T04:37:00;100955.97;;;1.41;64.26
75699;BME280;64313;51.018;13.742;2023-04-03T04:39:26;100947.34;;;1.26;64.80
75699;BME280;64313;51.018;13.742;2023-04-03T04:41:54;100947.81;;;1.20;64.68
75699;BME280;64313;51.018;13.742;2023-04-03T04:44:20;100958.56;;;1.17;65.35
75699;BME280;64313;51.018;13.742;2023-04-03T04:46:45;100957.91;;;1.13;65.20
75699;BME280;64313;51.018;13.742;2023-04-03T04:49:11;100962.97;;;1.29;64.68
75699;BME280;64313;51.018;13.742;2023-04-03T04:51:37;100965.63;;;1.03;65.39
75699;BME280;64313;51.018;13.742;2023-04-03T04:54:02;100967.50;;;1.14;65.28
75699;BME280;64313;51.018;13.742;2023-04-03T04:56:28;100966.47;;;1.17;65.61
75699;BME280;64313;51.018;13.742;2023-04-03T04:58:55;100965.28;;;1.08;66.35
75699;BME280;64313;51.018;13.742;2023-04-03T05:01:23;100968.66;;;1.10;66.17
75699;BME280;64313;51.018;13.742;2023-04-03T05:03:58;100972.78;;;1.14;66.32
75699;BME280;64313;51.018;13.742;2023-04-03T05:06:24;100977.41;;;1.11;66.42
75699;BME280;64313;51.018;13.742;2023-04-03T05:08:50;100973.09;;;1.10;66.21
75699;BME280;64313;51.018;13.742;2023-04-03T05:11:16;100980.78;;;1.13;66.94
75699;BME280;64313;51.018;13.742;2023-04-03T05:13:45;100983.63;;;1.10;66.81
75699;BME280;64313;51.018;13.742;2023-04-03T05:16:11;100986.03;;;1.13;66.97
75699;BME280;64313;51.018;13.742;2023-04-03T05:18:37;100982.25;;;1.17;66.74
75699;BME280;64313;51.018;13.742;2023-04-03T05:21:07;100985.81;;;1.16;66.46
75699;BME280;64313;51.018;13.742;2023-04-03T05:23:33;100986.56;;;1.18;66.99
75699;BME280;64313;51.018;13.742;2023-04-03T05:26:00;100988.56;;;1.27;66.41
75699;BME280;64313;51.018;13.742;2023-04-03T05:28:27;100991.00;;;1.04;66.80
75699;BME280;64313;51.018;13.742;2023-04-03T05:30:55;100986.78;;;1.02;66.76
75699;BME280;64313;51.018;13.742;2023-04-03T05:33:22;100989.34;;;1.03;67.06
75699;BME280;64313;51.018;13.742;2023-04-03T05:35:52;100989.75;;;0.97;67.38
75699;BME280;64313;51.018;13.742;2023-04-03T05:38:22;100987.84;;;0.99;67.18
75699;BME280;64313;51.018;13.742;2023-04-03T05:40:48;100996.28;;;1.04;67.39
75699;BME280;64313;51.018;13.742;2023-04-03T05:43:13;100998.34;;;1.25;66.76
75699;BME280;64313;51.018;13.742;2023-04-03T05:45:42;100991.31;;;1.13;67.05
75699;BME280;64313;51.018;13.742;2023-04-03T05:48:08;100998.16;;;1.02;67.17
75699;BME280;64313;51.018;13.742;2023-04-03T05:50:33;101000.28;;;0.97;67.50
75699;BME280;64313;51.018;13.742;2023-04-03T05:53:00;101003.84;;;1.09;67.05
75699;BME280;64313;51.018;13.742;2023-04-03T05:55:29;101003.44;;;1.02;67.39
75699;BME280;64313;51.018;13.742;2023-04-03T05:57:54;100999.34;;;0.98;67.38
75699;BME280;64313;51.018;13.742;2023-04-03T06:00:20;101002.91;;;0.97;67.77
75699;BME280;64313;51.018;13.742;2023-04-03T06:02:54;101001.00;;;0.99;67.87
75699;BME280;64313;51.018;13.742;2023-04-03T06:05:22;101003.22;;;1.05;67.54
75699;BME280;64313;51.018;13.742;2023-04-03T06:07:48;100996.69;;;1.11;67.32
75699;BME280;64313;51.018;13.742;2023-04-03T06:10:15;101005.22;;;1.15;67.29
75699;BME280;64313;51.018;13.742;2023-04-03T06:12:40;101006.50;;;1.09;67.69
75699;BME280;64313;51.018;13.742;2023-04-03T06:15:06;101001.31;;;1.07;67.60
75699;BME280;64313;51.018;13.742;2023-04-03T06:17:33;101005.13;;;1.03;67.51
75699;BME280;64313;51.018;13.742;2023-04-03T06:19:58;101002.69;;;1.00;67.42
75699;BME280;64313;51.018;13.742;2023-04-03T06:22:24;101012.16;;;1.03;67.58
75699;BME280;64313;51.018;13.742;2023-04-03T06:24:51;101012.81;;;1.06;67.44
75699;BME280;64313;51.018;13.742;2023-04-03T06:27:16;101014.38;;;1.22;67.44
75699;BME280;64313;51.018;13.742;2023-04-03T06:29:41;101019.44;;;1.25;66.97
75699;BME280;64313;51.018;13.742;2023-04-03T06:32:07;101019.88;;;1.19;66.91
75699;BME280;64313;51.018;13.742;2023-04-03T06:34:32;101019.44;;;1.25;66.84
75699;BME280;64313;51.018;13.742;2023-04-03T06:36:58;101015.94;;;1.24;67.49
75699;BME280;64313;51.018;13.742;2023-04-03T06:39:24;101022.47;;;1.32;66.79
75699;BME280;64313;51.018;13.742;2023-04-03T06:41:50;101025.13;;;1.19;67.15
75699;BME280;64313;51.018;13.742;2023-04-03T06:44:17;101025.97;;;1.06;67.40
75699;BME280;64313;51.018;13.742;2023-04-03T06:46:43;101034.81;;;1.05;67.49
75699;BME280;64313;51.018;13.742;2023-04-03T06:49:09;101029.00;;;1.13;67.49
75699;BME280;64313;51.018;13.742;2023-04-03T06:51:35;101022.50;;;1.06;67.12
75699;BME280;64313;51.018;13.742;2023-04-03T06:54:02;101031.25;;;1.06;67.33
75699;BME280;64313;51.018;13.742;2023-04-03T06:56:28;101038.63;;;1.01;67.76
75699;BME280;64313;51.018;13.742;2023-04-03T06:58:55;101027.44;;;0.98;67.70
75699;BME280;64313;51.018;13.742;2023-04-03T07:01:23;101032.69;;;0.98;68.22
75699;BME280;64313;51.018;13.742;2023-04-03T07:03:50;101033.97;;;1.05;67.57
75699;BME280;64313;51.018;13.742;2023-04-03T07:06:16;101042.16;;;1.13;67.54
75699;BME280;64313;51.018;13.742;2023-04-03T07:08:42;101045.69;;;1.14;67.42
75699;BME280;64313;51.018;13.742;2023-04-03T07:11:08;101038.38;;;1.17;66.81
75699;BME280;64313;51.018;13.742;2023-04-03T07:13:34;101043.66;;;1.17;67.00
75699;BME280;64313;51.018;13.742;2023-04-03T07:15:59;101052.00;;;1.24;67.20
75699;BME280;64313;51.018;13.742;2023-04-03T07:18:25;101052.00;;;1.24;67.31
75699;BME280;64313;51.018;13.742;2023-04-03T07:20:51;101052.00;;;1.24;66.87
75699;BME280;64313;51.018;13.742;2023-04-03T07:23:17;101054.41;;;1.27;67.44
75699;BME280;64313;51.018;13.742;2023-04-03T07:25:47;101060.41;;;1.29;67.33
75699;BME280;64313;51.018;13.742;2023-04-03T07:28:14;101061.13;;;1.18;66.98
75699;BME280;64313;51.018;13.742;2023-04-03T07:30:49;101066.09;;;1.23;66.86
75699;BME280;64313;51.018;13.742;2023-04-03T07:33:16;101066.31;;;1.33;66.64
75699;BME280;64313;51.018;13.742;2023-04-03T07:35:42;101064.84;;;1.41;66.61
75699;BME280;64313;51.018;13.742;2023-04-03T07:38:08;101067.78;;;1.37;66.71
75699;BME280;64313;51.018;13.742;2023-04-03T07:40:34;101071.66;;;1.18;66.23
75699;BME280;64313;51.018;13.742;2023-04-03T07:43:00;101074.94;;;1.22;66.62
75699;BME280;64313;51.018;13.742;2023-04-03T07:45:25;101076.31;;;1.27;66.92
75699;BME280;64313;51.018;13.742;2023-04-03T07:47:52;101081.38;;;1.30;66.24
75699;BME280;64313;51.018;13.742;2023-04-03T07:50:18;101079.16;;;1.37;66.45
75699;BME280;64313;51.018;13.742;2023-04-03T07:52:43;101081.78;;;1.37;66.33
75699;BME280;64313;51.018;13.742;2023-04-03T07:55:09;101078.84;;;1.29;66.49
75699;BME280;64313;51.018;13.742;2023-04-03T07:57:35;101080.63;;;1.28;66.23
75699;BME280;64313;51.018;13.742;2023-04-03T08:00:02;101077.38;;;1.25;66.37
75699;BME280;64313;51.018;13.742;2023-04-03T08:02:37;101081.06;;;1.22;66.88
75699;BME280;64313;51.018;13.742;2023-04-03T08:05:03;101085.78;;;1.30;67.01
75699;BME280;64313;51.018;13.742;2023-04-03T08:07:28;101087.50;;;1.31;66.39
75699;BME280;64313;51.018;13.742;2023-04-03T08:09:55;101086.22;;;1.37;66.78
75699;BME280;64313;51.018;13.742;2023-04-03T08:12:21;101082.41;;;1.41;66.75
75699;BME280;64313;51.018;13.742;2023-04-03T08:14:46;101078.84;;;1.42;65.99
75699;BME280;64313;51.018;13.742;2023-04-03T08:17:12;101069.88;;;1.44;66.31
75699;BME280;64313;51.018;13.742;2023-04-03T08:19:38;101076.72;;;1.47;66.01
75699;BME280;64313;51.018;13.742;2023-04-03T08:22:04;101075.78;;;1.48;66.25
75699;BME280;64313;51.018;13.742;2023-04-03T08:24:31;101078.84;;;1.55;66.42
75699;BME280;64313;51.018;13.742;2023-04-03T08:26:56;101081.97;;;1.60;66.01
75699;BME280;64313;51.018;13.742;2023-04-03T08:29:22;101075.00;;;1.59;65.80
75699;BME280;64313;51.018;13.742;2023-04-03T08:31:47;101083.56;;;1.62;65.26
75699;BME280;64313;51.018;13.742;2023-04-03T08:34:14;101089.78;;;1.74;66.11
75699;BME280;64313;51.018;13.742;2023-04-03T08:36:40;101080.44;;;1.81;66.01
75699;BME280;64313;51.018;13.742;2023-04-03T08:39:05;101084.66;;;1.84;65.90
75699;BME280;64313;51.018;13.742;2023-04-03T08:41:34;101088.06;;;1.73;65.15
75699;BME280;64313;51.018;13.742;2023-04-03T08:44:34;101087.84;;;1.76;65.84
75699;BME280;64313;51.018;13.742;2023-04-03T08:47:27;101092.06;;;1.79;65.56
75699;BME280;64313;51.018;13.742;2023-04-03T08:49:56;101085.72;;;1.81;65.69
75699;BME280;64313;51.018;13.742;2023-04-03T08:52:40;101088.56;;;1.91;65.46
75699;BME280;64313;51.018;13.742;2023-04-03T08:55:23;101093.09;;;1.89;64.60
75699;BME280;64313;51.018;13.742;2023-04-03T08:57:57;101092.25;;;1.88;65.71
75699;BME280;64313;51.018;13.742;2023-04-03T09:00:27;101093.22;;;1.87;65.62
75699;BME280;64313;51.018;13.742;2023-04-03T09:02:55;101085.09;;;1.90;65.52
75699;BME280;64313;51.018;13.742;2023-04-03T09:05:34;101089.94;;;1.97;65.44
75699;BME280;64313;51.018;13.742;2023-04-03T09:08:14;101096.22;;;2.07;65.28
75699;BME280;64313;51.018;13.742;2023-04-03T09:10:43;101092.19;;;2.14;65.32
75699;BME280;64313;51.018;13.742;2023-04-03T09:15:51;101089.22;;;2.19;65.19
75699;BME280;64313;51.018;13.742;2023-04-03T09:18:24;101097.75;;;2.22;64.09
75699;BME280;64313;51.018;13.742;2023-04-03T09:21:08;101091.41;;;2.25;64.80
75699;BME280;64313;51.018;13.742;2023-04-03T09:23:46;101091.09;;;2.29;64.56
75699;BME280;64313;51.018;13.742;2023-04-03T09:26:19;101084.19;;;2.40;64.54
75699;BME280;64313;51.018;13.742;2023-04-03T09:28:47;101094.59;;;2.41;62.68
75699;BME280;64313;51.018;13.742;2023-04-03T09:31:25;101086.19;;;2.36;63.22
75699;BME280;64313;51.018;13.742;2023-04-03T09:33:53;101085.63;;;2.44;64.19
75699;BME280;64313;51.018;13.742;2023-04-03T09:36:45;101083.38;;;2.50;63.07
75699;BME280;64313;51.018;13.742;2023-04-03T09:39:19;101083.41;;;2.62;62.80
75699;BME280;64313;51.018;13.742;2023-04-03T09:42:11;101072.44;;;2.79;63.18
75699;BME280;64313;51.018;13.742;2023-04-03T09:44:40;101077.28;;;2.96;62.99
75699;BME280;64313;51.018;13.742;2023-04-03T09:47:30;101084.28;;;3.09;62.83
75699;BME280;64313;51.018;13.742;2023-04-03T09:52:40;101070.28;;;3.31;62.33
75699;BME280;64313;51.018;13.742;2023-04-03T09:55:21;101071.25;;;3.41;62.25
75699;BME280;64313;51.018;13.742;2023-04-03T09:57:52;101073.66;;;3.44;62.37
75699;BME280;64313;51.018;13.742;2023-04-03T10:00:23;101065.59;;;3.45;61.75
75699;BME280;64313;51.018;13.742;2023-04-03T10:02:53;101070.66;;;3.49;62.23
75699;BME280;64313;51.018;13.742;2023-04-03T10:05:30;101068.50;;;3.54;60.61
75699;BME280;64313;51.018;13.742;2023-04-03T10:08:21;101064.53;;;3.48;59.18
75699;BME280;64313;51.018;13.742;2023-04-03T10:11:13;101054.31;;;3.43;60.04
75699;BME280;64313;51.018;13.742;2023-04-03T10:13:50;101055.25;;;3.42;59.77
75699;BME280;64313;51.018;13.742;2023-04-03T10:16:19;101056.97;;;3.43;59.56
75699;BME280;64313;51.018;13.742;2023-04-03T10:18:53;101050.22;;;3.39;57.50
75699;BME280;64313;51.018;13.742;2023-04-03T10:21:35;101048.06;;;3.44;57.70
75699;BME280;64313;51.018;13.742;2023-04-03T10:24:11;101052.50;;;3.44;57.92
75699;BME280;64313;51.018;13.742;2023-04-03T10:32:26;101042.03;;;3.42;58.11
75699;BME280;64313;51.018;13.742;2023-04-03T10:35:13;101040.84;;;3.46;57.76
75699;BME280;64313;51.018;13.742;2023-04-03T10:41:04;101043.84;;;3.53;58.14
75699;BME280;64313;51.018;13.742;2023-04-03T10:46:38;101031.59;;;3.63;57.05
75699;BME280;64313;51.018;13.742;2023-04-03T10:49:31;101028.34;;;3.71;55.92
75699;BME280;64313;51.018;13.742;2023-04-03T10:55:02;101019.53;;;3.82;53.63
75699;BME280;64313;51.018;13.742;2023-04-03T10:57:31;101023.63;;;3.86;52.72
75699;BME280;64313;51.018;13.742;2023-04-03T11:00:06;101022.41;;;3.90;52.79
75699;BME280;64313;51.018;13.742;2023-04-03T11:05:26;101020.38;;;3.94;51.67
75699;BME280;64313;51.018;13.742;2023-04-03T11:07:55;101015.91;;;3.94;52.35
75699;BME280;64313;51.018;13.742;2023-04-03T11:10:40;101010.63;;;3.94;51.02
75699;BME280;64313;51.018;13.742;2023-04-03T11:13:17;101007.72;;;3.97;51.11
75699;BME280;64313;51.018;13.742;2023-04-03T11:15:44;100999.16;;;4.05;50.85
75699;BME280;64313;51.018;13.742;2023-04-03T11:18:17;100999.75;;;4.08;50.57
75699;BME280;64313;51.018;13.742;2023-04-03T11:20:47;100995.03;;;4.12;49.62
75699;BME280;64313;51.018;13.742;2023-04-03T11:23:21;100996.50;;;4.16;49.21
75699;BME280;64313;51.018;13.742;2023-04-03T11:25:52;100999.34;;;4.24;50.25
75699;BME280;64313;51.018;13.742;2023-04-03T11:28:18;100991.13;;;4.27;50.41
75699;BME280;64313;51.018;13.742;2023-04-03T11:31:02;100991.34;;;4.36;51.76
75699;BME280;64313;51.018;13.742;2023-04-03T11:33:47;100994.44;;;4.41;50.97
75699;BME280;64313;51.018;13.742;2023-04-03T11:36:34;100990.00;;;4.41;49.51
75699;BME280;64313;51.018;13.742;2023-04-03T11:39:19;100996.97;;;4.42;50.05
75699;BME280;64313;51.018;13.742;2023-04-03T11:41:46;100987.22;;;4.43;50.08
75699;BME280;64313;51.018;13.742;2023-04-03T11:44:38;100983.72;;;4.42;49.14
75699;BME280;64313;51.018;13.742;2023-04-03T11:47:08;100989.03;;;4.42;48.38
75699;BME280;64313;51.018;13.742;2023-04-03T11:49:55;100986.84;;;4.47;48.89
75699;BME280;64313;51.018;13.742;2023-04-03T11:58:01;100986.38;;;4.42;47.12
75699;BME280;64313;51.018;13.742;2023-04-03T12:00:47;100988.03;;;4.43;48.99
75699;BME280;64313;51.018;13.742;2023-04-03T12:13:37;100982.72;;;4.33;49.72
75699;BME280;64313;51.018;13.742;2023-04-03T12:16:04;100991.22;;;4.37;49.70
75699;BME280;64313;51.018;13.742;2023-04-03T12:21:13;100984.94;;;4.38;49.95
75699;BME280;64313;51.018;13.742;2023-04-03T12:27:09;100987.03;;;4.34;50.39
75699;BME280;64313;51.018;13.742;2023-04-03T12:29:47;100989.41;;;4.38;50.99
75699;BME280;64313;51.018;13.742;2023-04-03T12:35:21;100973.66;;;4.36;49.67
75699;BME280;64313;51.018;13.742;2023-04-03T12:37:57;100978.56;;;4.41;49.47
75699;BME280;64313;51.018;13.742;2023-04-03T12:40:31;100968.56;;;4.44;49.72
75699;BME280;64313;51.018;13.742;2023-04-03T12:43:34;100974.56;;;4.46;49.16
75699;BME280;64313;51.018;13.742;2023-04-03T12:48:46;100977.69;;;4.51;49.75
75699;BME280;64313;51.018;13.742;2023-04-03T12:51:19;100965.13;;;4.53;49.74
75699;BME280;64313;51.018;13.742;2023-04-03T12:53:45;100972.94;;;4.55;48.26
75699;BME280;64313;51.018;13.742;2023-04-03T12:56:24;100977.03;;;4.59;48.74
75699;BME280;64313;51.018;13.742;2023-04-03T12:58:51;100970.91;;;4.59;49.14
75699;BME280;64313;51.018;13.742;2023-04-03T13:01:20;100973.41;;;4.60;49.44
75699;BME280;64313;51.018;13.742;2023-04-03T13:03:54;100969.66;;;4.63;49.22
75699;BME280;64313;51.018;13.742;2023-04-03T13:06:27;100974.94;;;4.63;49.78
75699;BME280;64313;51.018;13.742;2023-04-03T13:08:56;100975.94;;;4.62;49.11
75699;BME280;64313;51.018;13.742;2023-04-03T13:11:38;100980.97;;;4.65;49.92
75699;BME280;64313;51.018;13.742;2023-04-03T13:14:15;100977.75;;;4.61;49.51
75699;BME280;64313;51.018;13.742;2023-04-03T13:16:41;100981.78;;;4.65;50.42
75699;BME280;64313;51.018;13.742;2023-04-03T13:19:15;100980.84;;;4.66;50.26
75699;BME280;64313;51.018;13.742;2023-04-03T13:21:41;100982.41;;;4.69;50.67
75699;BME280;64313;51.018;13.742;2023-04-03T13:24:08;100973.59;;;4.68;50.22
75699;BME280;64313;51.018;13.742;2023-04-03T13:26:34;100977.09;;;4.69;48.61
75699;BME280;64313;51.018;13.742;2023-04-03T13:29:04;100970.28;;;4.76;50.13
75699;BME280;64313;51.018;13.742;2023-04-03T13:31:36;100971.00;;;4.78;50.09
75699;BME280;64313;51.018;13.742;2023-04-03T13:37:00;100961.88;;;4.92;48.96
75699;BME280;64313;51.018;13.742;2023-04-03T13:39:27;100966.78;;;4.96;49.71
75699;BME280;64313;51.018;13.742;2023-04-03T13:41:56;100964.16;;;4.96;48.77
75699;BME280;64313;51.018;13.742;2023-04-03T13:46:57;100958.56;;;4.99;48.54
75699;BME280;64313;51.018;13.742;2023-04-03T13:51:52;100962.44;;;4.95;48.76
75699;BME280;64313;51.018;13.742;2023-04-03T13:54:22;100960.19;;;4.91;49.01
75699;BME280;64313;51.018;13.742;2023-04-03T13:56:56;100968.28;;;4.89;49.29
75699;BME280;64313;51.018;13.742;2023-04-03T13:59:34;100962.78;;;4.81;48.24
75699;BME280;64313;51.018;13.742;2023-04-03T14:04:51;100963.44;;;4.73;48.07
75699;BME280;64313;51.018;13.742;2023-04-03T14:07:18;100953.25;;;4.69;48.56